createdAt,value
2022-09-07T00:00:25.269Z,15.89
2022-09-07T00:01:27.143Z,15.88
2022-09-07T00:02:29.060Z,15.87
2022-09-07T00:03:31.011Z,15.86
2022-09-07T00:04:32.984Z,15.84
2022-09-07T00:05:35.906Z,15.83
2022-09-07T00:06:37.877Z,15.82
2022-09-07T00:07:39.754Z,15.81
2022-09-07T00:08:41.640Z,15.81
2022-09-07T00:09:43.511Z,15.80
2022-09-07T00:10:45.500Z,15.79
2022-09-07T00:11:47.352Z,15.78
2022-09-07T00:12:49.280Z,15.77
2022-09-07T00:13:51.262Z,15.77
2022-09-07T00:14:53.119Z,15.76
2022-09-07T00:15:55.019Z,15.75
2022-09-07T00:16:58.013Z,15.74
2022-09-07T00:17:59.834Z,15.74
2022-09-07T00:19:01.723Z,15.74
2022-09-07T00:20:03.693Z,15.74
2022-09-07T00:21:05.652Z,15.73
2022-09-07T00:22:08.017Z,15.73
2022-09-07T00:23:09.892Z,15.72
2022-09-07T00:24:11.817Z,15.71
2022-09-07T00:25:13.968Z,15.70
2022-09-07T00:26:16.235Z,15.70
2022-09-07T00:27:18.082Z,15.69
2022-09-07T00:28:19.950Z,15.68
2022-09-07T00:29:21.916Z,15.67
2022-09-07T00:30:25.596Z,15.66
2022-09-07T00:31:27.490Z,15.66
2022-09-07T00:32:29.354Z,15.67
2022-09-07T00:33:31.209Z,15.65
2022-09-07T00:34:33.109Z,15.64
2022-09-07T00:35:35.168Z,15.65
2022-09-07T00:36:37.118Z,15.63
2022-09-07T00:37:41.452Z,15.62
2022-09-07T00:38:43.657Z,15.63
2022-09-07T00:39:45.586Z,15.62
2022-09-07T00:40:47.519Z,15.61
2022-09-07T00:41:49.381Z,15.59
2022-09-07T00:42:51.367Z,15.59
2022-09-07T00:43:53.234Z,15.59
2022-09-07T00:44:55.226Z,15.58
2022-09-07T00:45:57.079Z,15.57
2022-09-07T00:46:59.074Z,15.56
2022-09-07T00:48:00.901Z,15.56
2022-09-07T00:49:02.752Z,15.53
2022-09-07T00:50:04.754Z,15.53
2022-09-07T00:51:06.587Z,15.51
2022-09-07T00:52:08.423Z,15.50
2022-09-07T00:53:10.266Z,15.50
2022-09-07T00:54:12.095Z,15.49
2022-09-07T00:55:13.971Z,15.46
2022-09-07T00:56:16.823Z,15.46
2022-09-07T00:57:18.644Z,15.45
2022-09-07T00:58:20.497Z,15.44
2022-09-07T00:59:22.351Z,15.44
2022-09-07T01:00:25.121Z,15.44
2022-09-07T01:01:27.135Z,15.41
2022-09-07T01:02:29.152Z,15.40
2022-09-07T01:03:31.051Z,15.40
2022-09-07T01:04:32.885Z,15.40
2022-09-07T01:05:34.764Z,15.38
2022-09-07T01:06:36.725Z,15.37
2022-09-07T01:07:38.555Z,15.35
2022-09-07T01:08:40.385Z,15.35
2022-09-07T01:09:42.231Z,15.34
2022-09-07T01:10:44.202Z,15.33
2022-09-07T01:11:46.054Z,15.32
2022-09-07T01:12:47.902Z,15.31
2022-09-07T01:13:49.762Z,15.29
2022-09-07T01:14:51.597Z,15.29
2022-09-07T01:15:53.742Z,15.28
2022-09-07T01:16:55.737Z,15.27
2022-09-07T01:17:57.583Z,15.27
2022-09-07T01:18:59.445Z,15.26
2022-09-07T01:20:01.275Z,15.26
2022-09-07T01:21:03.148Z,15.23
2022-09-07T01:22:04.992Z,15.23
2022-09-07T01:23:06.848Z,15.22
2022-09-07T01:24:08.684Z,15.22
2022-09-07T01:25:10.525Z,15.21
2022-09-07T01:26:14.137Z,15.20
2022-09-07T01:27:15.992Z,15.21
2022-09-07T01:28:17.824Z,15.21
2022-09-07T01:29:19.657Z,15.21
2022-09-07T01:30:21.603Z,15.20
2022-09-07T01:31:23.718Z,15.20
2022-09-07T01:32:25.571Z,15.18
2022-09-07T01:33:27.428Z,15.18
2022-09-07T01:34:29.273Z,15.18
2022-09-07T01:35:31.115Z,15.17
2022-09-07T01:36:33.077Z,15.16
2022-09-07T01:37:34.920Z,15.16
2022-09-07T01:38:36.750Z,15.15
2022-09-07T01:39:38.622Z,15.15
2022-09-07T01:40:40.540Z,15.16
2022-09-07T01:41:42.424Z,15.15
2022-09-07T01:42:44.267Z,15.13
2022-09-07T01:43:46.105Z,15.14
2022-09-07T01:44:47.955Z,15.12
2022-09-07T01:45:49.789Z,15.12
2022-09-07T01:46:52.248Z,15.12
2022-09-07T01:47:53.993Z,15.12
2022-09-07T01:48:55.822Z,15.10
2022-09-07T01:49:57.670Z,15.10
2022-09-07T01:50:59.639Z,15.08
2022-09-07T01:52:01.486Z,15.08
2022-09-07T01:53:03.320Z,15.06
2022-09-07T01:54:05.054Z,15.05
2022-09-07T01:55:06.902Z,15.06
2022-09-07T01:56:09.548Z,15.04
2022-09-07T01:57:11.438Z,15.03
2022-09-07T01:58:13.268Z,15.02
2022-09-07T01:59:15.121Z,15.01
2022-09-07T02:00:17.355Z,15.01
2022-09-07T02:01:19.272Z,15.00
2022-09-07T02:02:21.283Z,15.01
2022-09-07T02:03:23.111Z,15.00
2022-09-07T02:04:24.956Z,14.99
2022-09-07T02:05:26.790Z,14.99
2022-09-07T02:06:28.943Z,14.98
2022-09-07T02:07:30.830Z,14.98
2022-09-07T02:08:32.676Z,14.97
2022-09-07T02:09:34.548Z,14.97
2022-09-07T02:10:36.517Z,14.96
2022-09-07T02:11:40.443Z,14.96
2022-09-07T02:12:42.336Z,14.95
2022-09-07T02:13:44.206Z,14.95
2022-09-07T02:14:50.586Z,14.93
2022-09-07T02:15:49.817Z,14.92
2022-09-07T02:16:51.739Z,14.92
2022-09-07T02:17:53.870Z,14.92
2022-09-07T02:18:55.719Z,14.91
2022-09-07T02:19:57.587Z,14.92
2022-09-07T02:20:59.565Z,14.91
2022-09-07T02:22:01.430Z,14.89
2022-09-07T02:23:03.329Z,14.88
2022-09-07T02:24:05.193Z,14.88
2022-09-07T02:25:07.057Z,14.87
2022-09-07T02:26:09.184Z,14.86
2022-09-07T02:27:11.060Z,14.86
2022-09-07T02:28:12.969Z,14.85
2022-09-07T02:29:14.838Z,14.84
2022-09-07T02:30:17.124Z,14.83
2022-09-07T02:31:19.032Z,14.84
2022-09-07T02:32:20.884Z,14.81
2022-09-07T02:33:22.912Z,14.81
2022-09-07T02:34:24.779Z,14.80
2022-09-07T02:35:26.657Z,14.80
2022-09-07T02:36:28.633Z,14.79
2022-09-07T02:37:30.511Z,14.78
2022-09-07T02:38:32.454Z,14.78
2022-09-07T02:39:34.391Z,14.77
2022-09-07T02:40:36.373Z,14.77
2022-09-07T02:41:38.237Z,14.76
2022-09-07T02:42:40.132Z,14.75
2022-09-07T02:43:42.043Z,14.75
2022-09-07T02:44:43.907Z,14.75
2022-09-07T02:45:45.941Z,14.73
2022-09-07T02:46:47.963Z,14.73
2022-09-07T02:47:49.817Z,14.72
2022-09-07T02:48:51.794Z,14.70
2022-09-07T02:49:53.673Z,14.70
2022-09-07T02:50:55.647Z,14.68
2022-09-07T02:51:57.524Z,14.68
2022-09-07T02:52:59.390Z,14.68
2022-09-07T02:54:01.293Z,14.67
2022-09-07T02:55:03.176Z,14.67
2022-09-07T02:56:05.136Z,14.66
2022-09-07T02:57:07.014Z,14.66
2022-09-07T02:58:08.874Z,14.65
2022-09-07T02:59:10.775Z,14.64
2022-09-07T03:00:14.379Z,14.65
2022-09-07T03:01:16.295Z,14.63
2022-09-07T03:02:18.271Z,14.63
2022-09-07T03:03:20.058Z,14.62
2022-09-07T03:04:22.049Z,14.60
2022-09-07T03:05:23.916Z,14.60
2022-09-07T03:06:26.192Z,14.58
2022-09-07T03:07:28.060Z,14.58
2022-09-07T03:08:30.053Z,14.57
2022-09-07T03:09:32.072Z,14.58
2022-09-07T03:10:34.026Z,14.56
2022-09-07T03:11:35.906Z,14.56
2022-09-07T03:12:37.771Z,14.55
2022-09-07T03:13:39.648Z,14.54
2022-09-07T03:14:41.575Z,14.54
2022-09-07T03:15:43.522Z,14.53
2022-09-07T03:16:45.410Z,14.53
2022-09-07T03:17:47.258Z,14.52
2022-09-07T03:18:49.141Z,14.52
2022-09-07T03:19:51.063Z,14.52
2022-09-07T03:20:53.036Z,14.51
2022-09-07T03:21:54.948Z,14.52
2022-09-07T03:22:56.813Z,14.51
2022-09-07T03:23:58.667Z,14.50
2022-09-07T03:25:00.574Z,14.50
2022-09-07T03:26:02.638Z,14.50
2022-09-07T03:27:04.509Z,14.49
2022-09-07T03:28:06.373Z,14.49
2022-09-07T03:29:08.239Z,14.50
2022-09-07T03:30:11.057Z,14.50
2022-09-07T03:31:13.012Z,14.50
2022-09-07T03:32:15.007Z,14.50
2022-09-07T03:33:16.879Z,14.50
2022-09-07T03:34:18.758Z,14.50
2022-09-07T03:35:20.736Z,14.50
2022-09-07T03:36:23.308Z,14.50
2022-09-07T03:37:25.179Z,14.51
2022-09-07T03:38:27.103Z,14.51
2022-09-07T03:39:29.080Z,14.51
2022-09-07T03:40:32.064Z,14.50
2022-09-07T03:41:34.357Z,14.52
2022-09-07T03:42:36.223Z,14.52
2022-09-07T03:43:38.103Z,14.52
2022-09-07T03:44:39.971Z,14.52
2022-09-07T03:45:41.898Z,14.53
2022-09-07T03:46:43.835Z,14.53
2022-09-07T03:47:45.688Z,14.54
2022-09-07T03:48:47.552Z,14.54
2022-09-07T03:49:49.435Z,14.56
2022-09-07T03:50:51.660Z,14.57
2022-09-07T03:51:53.642Z,14.57
2022-09-07T03:52:55.520Z,14.59
2022-09-07T03:53:57.388Z,14.59
2022-09-07T03:54:59.272Z,14.59
2022-09-07T03:56:01.171Z,14.60
2022-09-07T03:57:03.123Z,14.62
2022-09-07T03:58:04.997Z,14.63
2022-09-07T03:59:06.876Z,14.64
2022-09-07T04:00:09.152Z,14.66
2022-09-07T04:01:11.074Z,14.67
2022-09-07T04:02:12.963Z,14.69
2022-09-07T04:03:14.923Z,14.70
2022-09-07T04:04:16.775Z,14.72
2022-09-07T04:05:18.809Z,14.73
2022-09-07T04:06:22.271Z,14.75
2022-09-07T04:07:24.167Z,14.77
2022-09-07T04:08:26.100Z,14.80
2022-09-07T04:09:27.900Z,14.81
2022-09-07T04:10:30.583Z,14.82
2022-09-07T04:11:32.481Z,14.84
2022-09-07T04:12:34.357Z,14.87
2022-09-07T04:13:36.232Z,14.88
2022-09-07T04:14:38.110Z,14.92
2022-09-07T04:15:39.988Z,14.95
2022-09-07T04:16:42.066Z,14.97
2022-09-07T04:17:43.994Z,14.99
2022-09-07T04:18:45.846Z,15.02
2022-09-07T04:19:47.716Z,15.02
2022-09-07T04:20:49.683Z,15.06
2022-09-07T04:21:51.685Z,15.08
2022-09-07T04:22:54.422Z,15.10
2022-09-07T04:23:56.384Z,15.12
2022-09-07T04:24:58.210Z,15.16
2022-09-07T04:26:00.042Z,15.18
2022-09-07T04:27:01.916Z,15.20
2022-09-07T04:28:03.773Z,15.23
2022-09-07T04:29:05.597Z,15.26
2022-09-07T04:30:07.735Z,15.28
2022-09-07T04:31:09.639Z,15.30
2022-09-07T04:32:15.641Z,15.34
2022-09-07T04:33:15.235Z,15.36
2022-09-07T04:34:17.085Z,15.38
2022-09-07T04:35:18.928Z,15.40
2022-09-07T04:36:21.163Z,15.45
2022-09-07T04:37:23.141Z,15.46
2022-09-07T04:38:25.092Z,15.48
2022-09-07T04:39:27.197Z,15.50
2022-09-07T04:40:30.504Z,15.54
2022-09-07T04:41:32.359Z,15.57
2022-09-07T04:42:34.249Z,15.60
2022-09-07T04:43:36.091Z,15.62
2022-09-07T04:44:37.949Z,15.64
2022-09-07T04:45:39.829Z,15.66
2022-09-07T04:46:41.813Z,15.69
2022-09-07T04:47:43.696Z,15.71
2022-09-07T04:48:45.540Z,15.73
2022-09-07T04:49:47.366Z,15.75
2022-09-07T04:50:49.318Z,15.78
2022-09-07T04:51:51.206Z,15.82
2022-09-07T04:52:53.191Z,15.85
2022-09-07T04:53:55.025Z,15.87
2022-09-07T04:54:56.913Z,15.89
2022-09-07T04:55:58.908Z,15.93
2022-09-07T04:57:00.854Z,15.96
2022-09-07T04:58:02.717Z,15.99
2022-09-07T04:59:04.560Z,16.01
2022-09-07T05:00:06.621Z,16.04
2022-09-07T05:01:08.513Z,16.06
2022-09-07T05:02:10.337Z,16.09
2022-09-07T05:03:12.174Z,16.11
2022-09-07T05:04:14.038Z,16.15
2022-09-07T05:05:15.871Z,16.17
2022-09-07T05:06:18.212Z,16.20
2022-09-07T05:07:20.051Z,16.21
2022-09-07T05:08:22.051Z,16.26
2022-09-07T05:09:23.933Z,16.28
2022-09-07T05:10:26.488Z,16.34
2022-09-07T05:11:29.686Z,16.38
2022-09-07T05:12:31.859Z,16.42
2022-09-07T05:13:33.814Z,16.48
2022-09-07T05:14:35.575Z,16.54
2022-09-07T05:15:37.416Z,16.58
2022-09-07T05:16:39.426Z,16.62
2022-09-07T05:17:41.302Z,16.66
2022-09-07T05:18:43.198Z,16.70
2022-09-07T05:19:45.029Z,16.74
2022-09-07T05:20:47.014Z,16.76
2022-09-07T05:21:48.906Z,16.79
2022-09-07T05:22:50.721Z,16.82
2022-09-07T05:23:52.659Z,16.84
2022-09-07T05:24:54.559Z,16.87
2022-09-07T05:25:56.416Z,16.87
2022-09-07T05:26:58.354Z,16.91
2022-09-07T05:28:00.199Z,16.89
2022-09-07T05:30:06.615Z,16.95
2022-09-07T05:32:12.591Z,17.00
2022-09-07T05:33:17.416Z,17.02
2022-09-07T05:34:34.543Z,17.03
2022-09-07T05:35:23.014Z,17.05
2022-09-07T05:36:25.169Z,17.06
2022-09-07T05:37:27.023Z,17.08
2022-09-07T05:38:28.941Z,17.09
2022-09-07T05:39:31.412Z,17.08
2022-09-07T05:40:36.179Z,17.10
2022-09-07T05:41:37.020Z,17.10
2022-09-07T05:42:38.868Z,17.13
2022-09-07T05:44:45.098Z,17.16
2022-09-07T05:45:47.553Z,17.17
2022-09-07T05:46:49.549Z,17.18
2022-09-07T05:47:51.367Z,17.21
2022-09-07T05:48:53.288Z,17.22
2022-09-07T05:49:57.249Z,17.23
2022-09-07T05:50:58.938Z,17.24
2022-09-07T05:52:00.782Z,17.24
2022-09-07T05:53:02.633Z,17.25
2022-09-07T05:54:04.465Z,17.27
2022-09-07T05:55:26.277Z,17.28
2022-09-07T05:56:10.659Z,17.29
2022-09-07T05:57:12.501Z,17.30
2022-09-07T05:58:14.338Z,17.32
2022-09-07T05:59:16.241Z,17.33
2022-09-07T06:00:18.917Z,17.35
2022-09-07T06:01:20.767Z,17.38
2022-09-07T06:02:22.681Z,17.39
2022-09-07T06:03:24.615Z,17.41
2022-09-07T06:04:26.492Z,17.41
2022-09-07T06:05:28.367Z,17.42
2022-09-07T06:06:30.528Z,17.43
2022-09-07T06:07:32.284Z,17.44
2022-09-07T06:08:34.125Z,17.47
2022-09-07T06:09:35.931Z,17.47
2022-09-07T06:10:45.704Z,17.47
2022-09-07T06:11:42.201Z,17.48
2022-09-07T06:12:45.656Z,17.50
2022-09-07T06:13:47.680Z,17.52
2022-09-07T06:14:49.504Z,17.53
2022-09-07T06:15:51.387Z,17.53
2022-09-07T06:16:53.591Z,17.50
2022-09-07T06:17:55.461Z,17.54
2022-09-07T06:18:57.313Z,17.55
2022-09-07T06:19:59.140Z,17.57
2022-09-07T06:21:01.137Z,17.58
2022-09-07T06:22:03.186Z,17.59
2022-09-07T06:23:05.013Z,17.60
2022-09-07T06:24:06.858Z,17.62
2022-09-07T06:25:08.693Z,17.63
2022-09-07T06:26:11.458Z,17.62
2022-09-07T06:27:13.291Z,17.64
2022-09-07T06:28:15.038Z,17.66
2022-09-07T06:29:16.870Z,17.67
2022-09-07T06:30:19.327Z,17.68
2022-09-07T06:31:21.366Z,17.69
2022-09-07T06:33:27.011Z,17.72
2022-09-07T06:34:28.882Z,17.73
2022-09-07T06:35:30.760Z,17.74
2022-09-07T06:36:32.772Z,17.77
2022-09-07T06:37:34.643Z,17.77
2022-09-07T06:38:36.536Z,17.79
2022-09-07T06:39:38.468Z,17.81
2022-09-07T06:40:40.421Z,17.80
2022-09-07T06:42:46.660Z,17.84
2022-09-07T06:43:48.536Z,17.84
2022-09-07T06:44:50.417Z,17.85
2022-09-07T06:45:52.507Z,17.86
2022-09-07T06:47:58.310Z,17.90
2022-09-07T06:49:00.158Z,17.92
2022-09-07T06:50:02.131Z,17.94
2022-09-07T06:51:04.002Z,17.95
2022-09-07T06:52:05.939Z,17.96
2022-09-07T06:55:15.165Z,18.01
2022-09-07T06:56:17.634Z,18.02
2022-09-07T06:57:19.647Z,18.05
2022-09-07T06:58:21.533Z,18.08
2022-09-07T06:59:23.414Z,18.08
2022-09-07T07:00:25.788Z,18.10
2022-09-07T07:01:27.989Z,18.11
2022-09-07T07:02:29.961Z,18.14
2022-09-07T07:03:31.894Z,18.16
2022-09-07T07:04:39.463Z,18.18
2022-09-07T07:05:37.561Z,18.18
2022-09-07T07:06:39.527Z,18.21
2022-09-07T07:07:41.424Z,18.23
2022-09-07T07:08:43.288Z,18.26
2022-09-07T07:09:45.174Z,18.26
2022-09-07T07:10:47.132Z,18.28
2022-09-07T07:11:49.004Z,18.29
2022-09-07T07:12:50.915Z,18.31
2022-09-07T07:13:52.780Z,18.32
2022-09-07T07:14:54.657Z,18.36
2022-09-07T07:15:56.571Z,18.37
2022-09-07T07:16:58.590Z,18.41
2022-09-07T07:18:09.627Z,18.42
2022-09-07T07:19:04.261Z,18.46
2022-09-07T07:20:06.217Z,18.50
2022-09-07T07:21:08.076Z,18.52
2022-09-07T07:22:29.575Z,18.55
2022-09-07T07:23:13.650Z,18.57
2022-09-07T07:24:15.517Z,18.59
2022-09-07T07:25:17.382Z,18.61
2022-09-07T07:26:19.565Z,18.62
2022-09-07T07:27:21.450Z,18.63
2022-09-07T07:29:29.955Z,18.64
2022-09-07T07:30:32.065Z,18.65
2022-09-07T07:31:33.960Z,18.65
2022-09-07T07:32:35.837Z,18.67
2022-09-07T07:33:40.616Z,18.68
2022-09-07T07:34:42.814Z,18.70
2022-09-07T07:35:44.653Z,18.72
2022-09-07T07:36:46.597Z,18.72
2022-09-07T07:37:48.421Z,18.73
2022-09-07T07:39:05.617Z,18.72
2022-09-07T07:42:03.546Z,18.72
2022-09-07T07:43:05.680Z,18.72
2022-09-07T07:44:09.357Z,18.72
2022-09-07T07:46:15.639Z,18.73
2022-09-07T07:47:17.971Z,18.72
2022-09-07T07:48:20.034Z,18.73
2022-09-07T07:49:22.151Z,18.73
2022-09-07T07:50:32.850Z,18.67
2022-09-07T07:51:28.807Z,18.74
2022-09-07T07:53:42.425Z,18.76
2022-09-07T07:54:37.986Z,18.78
2022-09-07T07:55:43.396Z,18.79
2022-09-07T07:56:43.538Z,18.80
2022-09-07T07:57:45.344Z,18.80
2022-09-07T07:58:47.171Z,18.80
2022-09-07T07:59:49.099Z,18.80
2022-09-07T08:00:55.496Z,18.81
2022-09-07T08:01:54.839Z,18.80
2022-09-07T08:02:56.701Z,18.80
2022-09-07T08:03:58.519Z,18.80
2022-09-07T08:05:00.386Z,18.80
2022-09-07T08:06:02.336Z,18.81
2022-09-07T08:07:09.715Z,18.80
2022-09-07T08:08:07.843Z,18.82
2022-09-07T08:09:09.666Z,18.80
2022-09-07T08:10:11.842Z,18.81
2022-09-07T08:11:13.688Z,18.80
2022-09-07T08:12:15.536Z,18.79
2022-09-07T08:13:17.369Z,18.79
2022-09-07T08:14:19.197Z,18.78
2022-09-07T08:15:21.085Z,18.77
2022-09-07T08:16:24.722Z,18.78
2022-09-07T08:17:26.570Z,18.76
2022-09-07T08:18:28.416Z,18.76
2022-09-07T08:19:30.261Z,18.77
2022-09-07T08:20:32.232Z,18.78
2022-09-07T08:21:34.059Z,18.79
2022-09-07T08:22:35.896Z,18.78
2022-09-07T08:23:37.715Z,18.81
2022-09-07T08:24:39.518Z,18.81
2022-09-07T08:25:41.371Z,18.82
2022-09-07T08:26:43.374Z,18.84
2022-09-07T08:27:45.217Z,18.85
2022-09-07T08:28:47.034Z,18.83
2022-09-07T08:29:48.844Z,18.83
2022-09-07T08:30:50.942Z,18.83
2022-09-07T08:31:52.781Z,18.83
2022-09-07T08:32:54.625Z,18.82
2022-09-07T08:34:14.511Z,18.82
2022-09-07T08:35:16.348Z,18.81
2022-09-07T08:36:18.951Z,18.83
2022-09-07T08:37:20.788Z,18.82
2022-09-07T08:38:22.622Z,18.88
2022-09-07T08:39:24.467Z,18.90
2022-09-07T08:40:28.115Z,18.92
2022-09-07T08:41:30.000Z,18.94
2022-09-07T08:42:31.829Z,18.97
2022-09-07T08:43:33.713Z,18.99
2022-09-07T08:44:35.663Z,19.00
2022-09-07T08:45:37.509Z,19.01
2022-09-07T08:46:39.601Z,19.02
2022-09-07T08:47:41.461Z,19.02
2022-09-07T08:48:43.254Z,19.04
2022-09-07T08:49:45.065Z,19.05
2022-09-07T08:50:46.976Z,19.06
2022-09-07T08:51:48.826Z,19.08
2022-09-07T08:52:50.619Z,19.10
2022-09-07T08:53:52.429Z,19.11
2022-09-07T08:54:54.235Z,19.13
2022-09-07T08:55:56.029Z,19.16
2022-09-07T08:58:01.584Z,19.18
2022-09-07T08:59:03.403Z,19.20
2022-09-07T09:00:05.319Z,19.22
2022-09-07T09:03:30.545Z,19.26
2022-09-07T09:04:19.044Z,19.29
2022-09-07T09:05:21.417Z,19.30
2022-09-07T09:06:24.504Z,19.33
2022-09-07T09:07:26.352Z,19.35
2022-09-07T09:08:28.146Z,19.36
2022-09-07T09:09:30.564Z,19.36
2022-09-07T09:10:32.670Z,19.38
2022-09-07T09:11:36.293Z,19.40
2022-09-07T09:12:38.138Z,19.41
2022-09-07T09:13:39.950Z,19.44
2022-09-07T09:14:41.855Z,19.45
2022-09-07T09:15:43.710Z,19.45
2022-09-07T09:16:45.563Z,19.45
2022-09-07T09:17:47.544Z,19.44
2022-09-07T09:18:49.342Z,19.44
2022-09-07T09:19:51.147Z,19.42
2022-09-07T09:20:53.208Z,19.42
2022-09-07T09:21:55.020Z,19.40
2022-09-07T09:22:56.970Z,19.39
2022-09-07T09:23:58.779Z,19.37
2022-09-07T09:25:00.822Z,19.37
2022-09-07T09:26:02.818Z,19.39
2022-09-07T09:27:04.625Z,19.39
2022-09-07T09:28:06.672Z,19.40
2022-09-07T09:29:08.466Z,19.40
2022-09-07T09:30:10.578Z,19.40
2022-09-07T09:31:12.439Z,19.41
2022-09-07T09:32:14.274Z,19.42
2022-09-07T09:33:16.179Z,19.44
2022-09-07T09:34:17.995Z,19.45
2022-09-07T09:35:19.787Z,19.47
2022-09-07T09:36:22.313Z,19.49
2022-09-07T09:37:24.169Z,19.50
2022-09-07T09:38:25.963Z,19.50
2022-09-07T09:39:27.803Z,19.51
2022-09-07T09:40:30.334Z,19.53
2022-09-07T09:41:32.197Z,19.54
2022-09-07T09:42:34.033Z,19.56
2022-09-07T09:43:35.884Z,19.56
2022-09-07T09:44:38.010Z,19.57
2022-09-07T09:46:44.269Z,19.59
2022-09-07T09:47:46.407Z,19.59
2022-09-07T09:48:48.258Z,19.59
2022-09-07T09:49:50.055Z,19.61
2022-09-07T09:52:59.469Z,19.63
2022-09-07T09:54:01.330Z,19.64
2022-09-07T09:55:33.707Z,19.62
2022-09-07T09:56:07.064Z,19.61
2022-09-07T09:57:08.864Z,19.59
2022-09-07T10:00:27.926Z,19.53
2022-09-07T10:01:24.005Z,19.53
2022-09-07T10:04:32.974Z,19.51
2022-09-07T10:05:34.768Z,19.49
2022-09-07T10:06:36.673Z,19.54
2022-09-07T10:07:38.476Z,19.56
2022-09-07T10:08:40.294Z,19.57
2022-09-07T10:09:42.159Z,19.58
2022-09-07T10:10:44.052Z,19.59
2022-09-07T10:12:49.525Z,19.60
2022-09-07T10:13:51.335Z,19.62
2022-09-07T10:14:53.176Z,19.62
2022-09-07T10:15:55.063Z,19.63
2022-09-07T10:16:57.029Z,19.66
2022-09-07T10:17:58.828Z,19.66
2022-09-07T10:19:00.939Z,19.68
2022-09-07T10:20:02.916Z,19.68
2022-09-07T10:21:04.718Z,19.69
2022-09-07T10:22:06.503Z,19.70
2022-09-07T10:23:08.321Z,19.72
2022-09-07T10:24:10.129Z,19.72
2022-09-07T10:25:11.910Z,19.73
2022-09-07T10:26:14.002Z,19.71
2022-09-07T10:27:15.809Z,19.69
2022-09-07T10:28:17.607Z,19.68
2022-09-07T10:29:19.414Z,19.66
2022-09-07T10:30:23.105Z,19.65
2022-09-07T10:31:24.969Z,19.65
2022-09-07T10:32:26.806Z,19.63
2022-09-07T10:33:28.668Z,19.61
2022-09-07T10:34:30.461Z,19.60
2022-09-07T10:35:32.377Z,19.60
2022-09-07T10:36:35.016Z,19.61
2022-09-07T10:37:36.835Z,19.62
2022-09-07T10:38:38.635Z,19.63
2022-09-07T10:39:40.492Z,19.65
2022-09-07T10:40:42.392Z,19.68
2022-09-07T10:41:44.202Z,19.70
2022-09-07T10:43:50.195Z,19.75
2022-09-07T10:44:51.978Z,19.79
2022-09-07T10:45:53.874Z,19.81
2022-09-07T10:46:57.333Z,19.82
2022-09-07T10:47:59.346Z,19.85
2022-09-07T10:49:01.166Z,19.88
2022-09-07T10:51:13.757Z,19.93
2022-09-07T10:52:10.353Z,19.96
2022-09-07T10:53:37.120Z,19.98
2022-09-07T10:54:31.501Z,20.00
2022-09-07T10:55:19.400Z,20.03
2022-09-07T10:56:21.559Z,20.05
2022-09-07T10:57:23.355Z,20.06
2022-09-07T10:59:01.517Z,20.08
2022-09-07T11:00:07.568Z,20.10
2022-09-07T11:00:32.739Z,20.12
2022-09-07T11:01:34.690Z,20.13
2022-09-07T11:03:58.507Z,20.16
2022-09-07T11:05:00.388Z,20.18
2022-09-07T11:06:02.318Z,20.21
2022-09-07T11:07:04.205Z,20.22
2022-09-07T11:08:06.050Z,20.24
2022-09-07T11:09:16.723Z,20.26
2022-09-07T11:10:11.880Z,20.28
2022-09-07T11:12:35.728Z,20.30
2022-09-07T11:13:50.244Z,20.32
2022-09-07T11:14:41.207Z,20.34
2022-09-07T11:15:43.067Z,20.35
2022-09-07T11:16:52.296Z,20.38
2022-09-07T11:17:52.736Z,20.39
2022-09-07T11:18:52.423Z,20.41
2022-09-07T11:19:54.210Z,20.42
2022-09-07T11:20:56.135Z,20.43
2022-09-07T11:21:58.066Z,20.43
2022-09-07T11:22:59.947Z,20.44
2022-09-07T11:24:01.767Z,20.45
2022-09-07T11:26:07.342Z,20.45
2022-09-07T11:27:09.181Z,20.45
2022-09-07T11:28:11.145Z,20.45
2022-09-07T11:30:17.621Z,20.45
2022-09-07T11:31:19.505Z,20.43
2022-09-07T11:32:21.362Z,20.44
2022-09-07T11:33:23.224Z,20.42
2022-09-07T11:34:25.258Z,20.41
2022-09-07T11:35:27.221Z,20.40
2022-09-07T11:36:29.549Z,20.41
2022-09-07T11:37:31.391Z,20.43
2022-09-07T11:38:33.523Z,20.42
2022-09-07T11:39:35.443Z,20.46
2022-09-07T11:40:37.451Z,20.45
2022-09-07T11:41:39.276Z,20.46
2022-09-07T11:42:44.438Z,20.47
2022-09-07T11:43:44.827Z,20.48
2022-09-07T11:44:46.640Z,20.49
2022-09-07T11:45:48.553Z,20.51
2022-09-07T11:46:50.450Z,20.50
2022-09-07T11:47:52.278Z,20.52
2022-09-07T11:48:54.142Z,20.52
2022-09-07T11:49:59.117Z,20.53
2022-09-07T11:50:59.811Z,20.53
2022-09-07T11:52:05.056Z,20.52
2022-09-07T11:53:05.268Z,20.52
2022-09-07T11:54:07.180Z,20.53
2022-09-07T11:55:09.040Z,20.52
2022-09-07T11:56:11.281Z,20.53
2022-09-07T11:57:13.109Z,20.53
2022-09-07T11:58:14.934Z,20.54
2022-09-07T11:59:16.793Z,20.54
2022-09-07T12:00:19.315Z,20.56
2022-09-07T12:01:21.150Z,20.57
2022-09-07T12:02:32.332Z,20.56
2022-09-07T12:03:26.663Z,20.57
2022-09-07T12:04:28.604Z,20.57
2022-09-07T12:05:30.387Z,20.58
2022-09-07T12:06:32.317Z,20.57
2022-09-07T12:07:34.719Z,20.58
2022-09-07T12:08:36.571Z,20.57
2022-09-07T12:09:38.475Z,20.57
2022-09-07T12:10:40.377Z,20.56
2022-09-07T12:11:42.236Z,20.54
2022-09-07T12:12:44.051Z,20.54
2022-09-07T12:13:45.872Z,20.54
2022-09-07T12:14:47.720Z,20.54
2022-09-07T12:15:49.588Z,20.55
2022-09-07T12:16:51.675Z,20.55
2022-09-07T12:17:53.496Z,20.55
2022-09-07T12:18:55.348Z,20.54
2022-09-07T12:19:57.202Z,20.54
2022-09-07T12:20:59.219Z,20.54
2022-09-07T12:22:01.049Z,20.55
2022-09-07T12:23:05.133Z,20.56
2022-09-07T12:24:06.505Z,20.56
2022-09-07T12:25:08.417Z,20.54
2022-09-07T12:26:12.045Z,20.55
2022-09-07T12:27:13.905Z,20.54
2022-09-07T12:28:19.861Z,20.53
2022-09-07T12:29:19.391Z,20.51
2022-09-07T12:30:22.220Z,20.51
2022-09-07T12:31:27.300Z,20.48
2022-09-07T12:33:31.431Z,20.45
2022-09-07T12:34:33.272Z,20.45
2022-09-07T12:35:35.151Z,20.44
2022-09-07T12:36:37.093Z,20.45
2022-09-07T12:37:38.924Z,20.46
2022-09-07T12:38:40.751Z,20.48
2022-09-07T12:39:42.651Z,20.48
2022-09-07T12:40:44.709Z,20.48
2022-09-07T12:41:47.436Z,20.48
2022-09-07T12:42:49.640Z,20.48
2022-09-07T12:43:51.465Z,20.47
2022-09-07T12:44:53.293Z,20.48
2022-09-07T12:45:55.210Z,20.49
2022-09-07T12:46:57.182Z,20.49
2022-09-07T12:47:59.030Z,20.50
2022-09-07T12:49:00.826Z,20.50
2022-09-07T12:50:03.103Z,20.52
2022-09-07T12:51:05.084Z,20.50
2022-09-07T12:52:15.309Z,20.52
2022-09-07T12:53:11.919Z,20.52
2022-09-07T12:54:13.735Z,20.52
2022-09-07T12:55:31.209Z,20.54
2022-09-07T12:56:19.668Z,20.54
2022-09-07T12:57:36.721Z,20.54
2022-09-07T12:58:25.103Z,20.53
2022-09-07T12:59:26.951Z,20.54
2022-09-07T13:00:29.386Z,20.54
2022-09-07T13:01:31.304Z,20.55
2022-09-07T13:02:33.233Z,20.56
2022-09-07T13:03:51.800Z,20.56
2022-09-07T13:04:38.704Z,20.55
2022-09-07T13:05:40.533Z,20.57
2022-09-07T13:07:46.335Z,20.56
2022-09-07T13:08:48.149Z,20.56
2022-09-07T13:09:49.995Z,20.57
2022-09-07T13:10:52.221Z,20.57
2022-09-07T13:11:54.142Z,20.56
2022-09-07T13:12:57.786Z,20.56
2022-09-07T13:14:04.423Z,20.56
2022-09-07T13:15:03.202Z,20.57
2022-09-07T13:16:05.220Z,20.56
2022-09-07T13:17:22.337Z,20.55
2022-09-07T13:18:10.619Z,20.55
2022-09-07T13:19:12.429Z,20.56
2022-09-07T13:20:16.036Z,20.55
2022-09-07T13:21:17.839Z,20.55
2022-09-07T13:22:19.667Z,20.54
2022-09-07T13:23:21.468Z,20.53
2022-09-07T13:25:26.976Z,20.53
2022-09-07T13:26:29.082Z,20.54
2022-09-07T13:27:31.005Z,20.54
2022-09-07T13:28:32.811Z,20.53
2022-09-07T13:29:34.605Z,20.54
2022-09-07T13:30:36.548Z,20.53
2022-09-07T13:31:38.515Z,20.54
2022-09-07T13:33:43.982Z,20.52
2022-09-07T13:34:45.751Z,20.52
2022-09-07T13:35:47.551Z,20.51
2022-09-07T13:36:49.464Z,20.50
2022-09-07T13:37:52.646Z,20.50
2022-09-07T13:38:54.475Z,20.50
2022-09-07T13:39:56.343Z,20.50
2022-09-07T13:40:58.174Z,20.50
2022-09-07T13:41:59.878Z,20.49
2022-09-07T13:43:01.818Z,20.48
2022-09-07T13:44:03.611Z,20.46
2022-09-07T13:45:05.417Z,20.46
2022-09-07T13:46:07.777Z,20.46
2022-09-07T13:47:09.629Z,20.45
2022-09-07T13:48:11.498Z,20.46
2022-09-07T13:49:13.271Z,20.47
2022-09-07T13:50:15.681Z,20.47
2022-09-07T13:51:17.481Z,20.47
2022-09-07T13:52:19.290Z,20.48
2022-09-07T13:53:21.117Z,20.48
2022-09-07T13:54:22.914Z,20.47
2022-09-07T13:55:25.992Z,20.49
2022-09-07T13:56:28.950Z,20.47